Time;durP1;ratioP1;P1;durP2;ratioP2;P2;SDS_P1;SDS_P2;PMS_P1;PMS_P2;Temp;Humidity;BMP_temperature;BMP_pressure;BME280_temperature;BME280_humidity;BME280_pressure;Samples;Min_cycle;Max_cycle;Signal;HPM_P1;HPM_P2
2023/03/04 00:01:26;;;;;;;6.85;1.00;;;19.70;51.20;;;;;;5035433;28;20087;-66
2023/03/04 00:03:52;;;;;;;4.22;0.95;;;19.70;51.20;;;;;;5034390;28;20053;-66
2023/03/04 00:06:17;;;;;;;3.88;1.10;;;19.70;51.20;;;;;;5035097;28;20044;-66
2023/03/04 00:08:43;;;;;;;5.07;0.90;;;19.60;51.20;;;;;;5031901;28;20049;-66
2023/03/04 00:11:08;;;;;;;4.32;1.02;;;19.60;51.10;;;;;;5035399;28;20034;-66
2023/03/04 00:13:34;;;;;;;4.97;0.93;;;19.60;51.20;;;;;;5035152;28;20033;-66
2023/03/04 00:16:00;;;;;;;5.47;1.00;;;19.60;51.10;;;;;;5034452;28;20469;-66
2023/03/04 00:18:25;;;;;;;5.75;1.02;;;19.60;51.10;;;;;;5034851;28;20045;-66
2023/03/04 00:20:51;;;;;;;5.45;1.08;;;19.60;51.10;;;;;;5035083;28;20041;-66
2023/03/04 00:23:16;;;;;;;2.80;0.80;;;19.60;51.10;;;;;;5034202;28;20073;-66
2023/03/04 00:25:42;;;;;;;3.53;0.70;;;19.60;51.10;;;;;;5034499;28;20048;-66
2023/03/04 00:28:08;;;;;;;3.40;0.80;;;19.60;51.10;;;;;;5053887;28;20091;-66
2023/03/04 00:30:33;;;;;;;3.13;0.80;;;19.60;51.10;;;;;;5050774;28;20516;-66
2023/03/04 00:32:59;;;;;;;2.13;0.77;;;19.50;51.00;;;;;;5035225;28;20045;-66
2023/03/04 00:35:24;;;;;;;4.38;0.85;;;19.50;51.00;;;;;;5034806;28;20129;-66
2023/03/04 00:37:50;;;;;;;5.70;1.10;;;19.50;51.00;;;;;;5033697;28;20045;-66
2023/03/04 00:40:15;;;;;;;4.78;1.00;;;19.50;51.00;;;;;;5034858;28;20076;-66
2023/03/04 00:42:41;;;;;;;3.70;1.02;;;19.50;51.00;;;;;;5054316;28;20053;-66
2023/03/04 00:45:08;;;;;;;3.15;0.80;;;19.50;51.00;;;;;;5052358;28;20409;-66
2023/03/04 00:47:33;;;;;;;3.67;0.85;;;19.50;51.00;;;;;;5053988;28;20037;-66
2023/03/04 00:49:59;;;;;;;3.72;0.75;;;19.50;51.00;;;;;;5054891;28;20563;-66
2023/03/04 00:52:24;;;;;;;5.03;1.10;;;19.50;51.00;;;;;;5053010;28;20077;-66
2023/03/04 00:54:50;;;;;;;4.15;0.93;;;19.40;50.90;;;;;;5053396;28;20051;-66
2023/03/04 00:57:15;;;;;;;4.15;0.98;;;19.40;50.90;;;;;;5054210;28;20045;-66
2023/03/04 00:59:42;;;;;;;3.15;0.90;;;19.50;50.90;;;;;;5053409;28;20140;-66
2023/03/04 01:02:09;;;;;;;3.70;0.80;;;19.40;50.90;;;;;;5053838;28;20500;-66
2023/03/04 01:04:34;;;;;;;5.93;1.10;;;19.50;51.00;;;;;;5033762;28;20048;-66
2023/03/04 01:07:00;;;;;;;4.72;1.00;;;19.40;50.90;;;;;;5033002;28;20042;-66
2023/03/04 01:09:25;;;;;;;3.58;0.80;;;19.40;51.00;;;;;;5033945;28;20073;-66
2023/03/04 01:11:51;;;;;;;3.75;0.98;;;19.40;50.90;;;;;;5033989;28;20487;-66
2023/03/04 01:14:17;;;;;;;3.83;0.77;;;19.40;51.00;;;;;;5034281;28;20124;-66
2023/03/04 01:16:43;;;;;;;4.40;1.05;;;19.40;50.90;;;;;;5033722;28;20117;-66
2023/03/04 01:19:08;;;;;;;3.38;0.77;;;19.40;51.00;;;;;;5032139;28;20124;-66
2023/03/04 01:21:34;;;;;;;5.63;0.90;;;19.40;51.00;;;;;;5033228;28;20099;-66
2023/03/04 01:23:59;;;;;;;4.57;0.98;;;19.40;51.00;;;;;;5034162;28;20045;-66
2023/03/04 01:26:25;;;;;;;2.88;0.68;;;19.30;51.60;;;;;;5031895;28;20055;-66
2023/03/04 01:28:50;;;;;;;4.38;1.13;;;19.30;50.90;;;;;;5045281;28;20132;-66
2023/03/04 01:31:16;;;;;;;4.90;1.08;;;19.30;50.80;;;;;;5037233;28;20052;-66
2023/03/04 01:33:41;;;;;;;3.80;0.80;;;19.30;50.80;;;;;;5032947;28;20556;-66
2023/03/04 01:36:07;;;;;;;3.80;0.90;;;19.30;50.90;;;;;;5033148;28;20045;-66
2023/03/04 01:38:33;;;;;;;3.42;0.80;;;19.30;50.80;;;;;;5033191;28;20045;-66
2023/03/04 01:40:58;;;;;;;2.75;0.75;;;19.30;50.80;;;;;;5032366;28;20051;-66
2023/03/04 01:43:26;;;;;;;3.42;0.73;;;19.30;50.80;;;;;;5031841;28;20065;-66
2023/03/04 01:45:51;;;;;;;4.40;0.60;;;19.30;50.80;;;;;;5032425;28;20063;-65
2023/03/04 01:48:19;;;;;;;2.75;0.68;;;19.20;50.80;;;;;;5032844;28;20045;-66
2023/03/04 01:50:44;;;;;;;3.20;0.80;;;19.30;50.90;;;;;;5031109;28;20516;-66
2023/03/04 01:53:16;;;;;;;3.03;0.80;;;19.30;50.90;;;;;;5051854;28;20114;-65
2023/03/04 01:55:42;;;;;;;1.92;0.60;;;19.20;50.80;;;;;;5035007;28;20041;-66
2023/03/04 01:58:09;;;;;;;3.10;1.27;;;19.30;50.90;;;;;;5053042;28;20052;-66
2023/03/04 02:00:36;;;;;;;4.10;0.80;;;19.20;50.90;;;;;;5050365;28;20049;-66
2023/03/04 02:03:06;;;;;;;3.13;1.00;;;19.20;50.90;;;;;;5032463;28;20049;-66
2023/03/04 02:05:32;;;;;;;3.90;0.80;;;19.20;50.90;;;;;;5031965;28;20095;-66
2023/03/04 02:07:57;;;;;;;4.10;0.70;;;19.20;50.90;;;;;;5033116;28;20462;-66
2023/03/04 02:10:23;;;;;;;2.60;0.63;;;19.20;50.90;;;;;;5032276;28;20049;-66
2023/03/04 02:12:49;;;;;;;3.78;0.77;;;19.20;50.90;;;;;;5031154;28;20477;-66
2023/03/04 02:15:15;;;;;;;3.33;0.80;;;19.20;50.90;;;;;;5031266;28;20052;-66
2023/03/04 02:17:41;;;;;;;4.03;0.60;;;19.20;50.90;;;;;;5032618;28;20038;-66
2023/03/04 02:20:24;;;;;;;2.33;0.52;;;19.10;50.80;;;;;;5031637;28;20550;-66
2023/03/04 02:23:14;;;;;;;2.40;0.60;;;19.20;50.90;;;;;;5030794;28;20041;-66
2023/03/04 02:25:46;;;;;;;3.13;0.60;;;19.10;50.90;;;;;;5017774;28;20404;-65
2023/03/04 02:28:12;;;;;;;2.72;0.73;;;19.20;50.90;;;;;;5032046;28;20079;-66
2023/03/04 02:30:38;;;;;;;2.50;0.45;;;19.10;50.90;;;;;;5030037;28;20077;-66
2023/03/04 02:33:03;;;;;;;2.08;0.50;;;19.10;50.90;;;;;;5031547;28;20034;-66
2023/03/04 02:35:29;;;;;;;3.38;0.73;;;19.10;50.90;;;;;;5032460;28;20406;-66
2023/03/04 02:37:54;;;;;;;3.85;0.60;;;19.10;50.90;;;;;;5029315;28;20069;-65
2023/03/04 02:40:23;;;;;;;4.07;0.70;;;19.10;50.90;;;;;;5032677;28;20063;-66
2023/03/04 02:42:49;;;;;;;2.88;0.50;;;19.10;50.90;;;;;;5031405;28;20464;-66
2023/03/04 02:45:37;;;;;;;2.03;0.63;;;19.10;50.90;;;;;;5031565;28;20049;-66
2023/03/04 02:48:03;;;;;;;3.30;0.80;;;19.10;50.90;;;;;;5031985;28;20049;-66
2023/03/04 02:50:30;;;;;;;2.70;0.80;;;19.10;50.90;;;;;;5031602;28;20095;-66
2023/03/04 02:52:56;;;;;;;3.35;0.70;;;19.10;50.90;;;;;;4994763;28;20054;-66
2023/03/04 02:55:23;;;;;;;3.72;0.70;;;19.10;50.90;;;;;;5012499;28;20551;-66
2023/03/04 02:57:48;;;;;;;4.30;0.70;;;19.10;50.90;;;;;;5033651;28;20045;-66
2023/03/04 03:00:15;;;;;;;3.25;1.05;;;19.10;50.90;;;;;;5051340;28;20045;-66
2023/03/04 03:02:40;;;;;;;2.88;0.63;;;19.00;50.90;;;;;;5031690;28;20416;-66
2023/03/04 03:05:06;;;;;;;2.45;0.80;;;19.00;50.90;;;;;;5031516;28;20037;-66
2023/03/04 03:07:33;;;;;;;3.75;0.90;;;19.10;51.70;;;;;;5031802;28;20513;-66
2023/03/04 03:09:59;;;;;;;2.07;0.77;;;19.10;51.00;;;;;;5032571;28;20531;-66
2023/03/04 03:12:25;;;;;;;2.70;0.60;;;19.00;51.60;;;;;;5031634;28;20053;-66
2023/03/04 03:14:50;;;;;;;3.10;0.60;;;19.10;50.90;;;;;;5032340;28;20095;-66
2023/03/04 03:17:16;;;;;;;2.85;0.60;;;19.10;50.90;;;;;;5030800;28;20037;-66
2023/03/04 03:19:41;;;;;;;2.67;0.60;;;19.10;50.90;;;;;;5031564;28;20092;-66
2023/03/04 03:22:07;;;;;;;3.45;0.57;;;19.10;50.90;;;;;;5031553;28;20400;-65
2023/03/04 03:24:33;;;;;;;2.50;0.70;;;19.10;50.90;;;;;;5031913;28;20041;-66
2023/03/04 03:26:58;;;;;;;3.13;0.60;;;19.10;51.00;;;;;;5031537;28;20037;-66
2023/03/04 03:29:24;;;;;;;2.58;0.60;;;19.10;50.90;;;;;;5031920;28;20045;-66
2023/03/04 03:31:49;;;;;;;4.13;0.70;;;19.10;50.90;;;;;;5032555;28;20485;-66
2023/03/04 03:34:15;;;;;;;3.22;0.52;;;19.10;51.00;;;;;;5031518;28;20041;-66
2023/03/04 03:36:40;;;;;;;3.40;0.68;;;19.20;51.30;;;;;;5031128;28;20226;-65
2023/03/04 03:39:06;;;;;;;3.17;0.60;;;19.10;50.90;;;;;;5032342;28;20460;-66
2023/03/04 03:41:32;;;;;;;1.73;0.50;;;19.20;51.00;;;;;;5030996;28;20073;-66
2023/03/04 03:43:57;;;;;;;1.77;0.60;;;19.20;51.00;;;;;;5032398;28;20045;-66
2023/03/04 03:46:23;;;;;;;1.88;0.55;;;19.20;51.00;;;;;;5030879;28;20045;-66
2023/03/04 03:48:48;;;;;;;2.80;0.60;;;19.20;51.00;;;;;;5031381;28;20044;-66
2023/03/04 03:51:14;;;;;;;1.98;0.60;;;19.20;51.00;;;;;;5031853;28;20088;-66
2023/03/04 03:53:40;;;;;;;1.25;0.30;;;19.30;51.10;;;;;;5030868;28;20088;-66
2023/03/04 03:56:05;;;;;;;2.72;0.50;;;19.20;51.00;;;;;;5030558;28;20053;-66
2023/03/04 03:58:31;;;;;;;2.35;0.50;;;19.30;51.00;;;;;;5030419;28;20045;-66
2023/03/04 04:00:57;;;;;;;2.53;0.60;;;19.30;51.10;;;;;;5034206;28;20064;-66
2023/03/04 04:03:22;;;;;;;1.65;0.50;;;19.30;51.10;;;;;;5035195;28;20397;-66
2023/03/04 04:05:48;;;;;;;2.53;0.55;;;19.30;51.10;;;;;;5035475;28;20408;-66
2023/03/04 04:08:14;;;;;;;2.58;0.60;;;19.30;51.10;;;;;;5034517;28;20107;-66
2023/03/04 04:10:40;;;;;;;2.72;0.50;;;19.30;51.10;;;;;;5035283;28;20076;-66
2023/03/04 04:13:06;;;;;;;2.67;0.70;;;19.30;51.70;;;;;;5035676;28;20073;-66
2023/03/04 04:15:31;;;;;;;2.33;0.55;;;19.40;51.10;;;;;;5034230;28;20049;-65
2023/03/04 04:17:57;;;;;;;2.13;0.40;;;19.40;51.50;;;;;;5035290;28;20061;-66
2023/03/04 04:20:22;;;;;;;2.17;0.60;;;19.40;51.00;;;;;;5035411;28;20037;-67
2023/03/04 04:22:48;;;;;;;3.10;0.60;;;19.40;51.10;;;;;;5033794;28;20045;-65
2023/03/04 04:25:15;;;;;;;3.22;0.52;;;19.40;51.10;;;;;;5033842;28;20046;-66
2023/03/04 04:27:40;;;;;;;1.50;0.50;;;19.50;51.10;;;;;;5034112;28;20045;-66
2023/03/04 04:30:06;;;;;;;2.72;0.40;;;19.50;51.10;;;;;;5034093;28;20045;-66
2023/03/04 04:32:32;;;;;;;1.85;0.57;;;19.50;51.10;;;;;;5034611;28;20451;-66
2023/03/04 04:34:57;;;;;;;3.45;0.80;;;19.50;51.10;;;;;;5035015;28;20043;-66
2023/03/04 04:37:23;;;;;;;1.77;0.50;;;19.50;51.10;;;;;;5033746;28;20057;-66
2023/03/04 04:39:50;;;;;;;2.15;0.50;;;19.50;51.10;;;;;;5033683;28;20041;-66
2023/03/04 04:42:16;;;;;;;2.55;0.40;;;19.50;51.10;;;;;;5034773;28;20054;-66
2023/03/04 04:44:41;;;;;;;2.15;0.50;;;19.50;51.10;;;;;;5034190;28;20049;-66
2023/03/04 04:47:08;;;;;;;3.35;0.52;;;19.60;51.10;;;;;;5034801;28;20042;-66
2023/03/04 04:49:34;;;;;;;1.92;0.35;;;19.60;51.10;;;;;;5033331;28;20428;-66
2023/03/04 04:51:59;;;;;;;4.25;0.65;;;19.60;51.10;;;;;;5033042;28;20068;-66
2023/03/04 04:54:25;;;;;;;1.60;0.40;;;19.60;51.10;;;;;;5054329;28;20403;-66
2023/03/04 04:56:53;;;;;;;;;;;19.60;51.10;;;;;;5053083;28;20044;-66
2023/03/04 04:59:19;;;;;;;3.72;0.60;;;19.60;51.10;;;;;;5034254;28;20361;-66
2023/03/04 05:01:44;;;;;;;2.47;0.45;;;19.70;51.10;;;;;;5033877;28;20045;-65
2023/03/04 05:04:10;;;;;;;2.10;0.47;;;19.70;51.10;;;;;;5033268;28;20041;-66
2023/03/04 05:06:35;;;;;;;1.65;0.40;;;19.70;51.10;;;;;;5033563;28;20044;-66
2023/03/04 05:09:01;;;;;;;3.67;0.68;;;19.70;51.10;;;;;;5034483;28;20125;-66
2023/03/04 05:11:27;;;;;;;1.67;0.60;;;19.70;51.10;;;;;;5031587;28;20619;-66
2023/03/04 05:13:52;;;;;;;3.88;0.50;;;19.70;51.10;;;;;;5033610;28;20084;-66
2023/03/04 05:16:18;;;;;;;2.05;0.32;;;19.70;51.10;;;;;;5034056;28;20049;-66
2023/03/04 05:18:44;;;;;;;1.52;0.50;;;19.70;51.10;;;;;;5033173;28;20041;-66
2023/03/04 05:21:09;;;;;;;1.73;0.47;;;19.70;51.10;;;;;;5033808;28;20503;-66
2023/03/04 05:23:37;;;;;;;2.33;0.50;;;19.70;51.20;;;;;;5033288;28;20048;-66
2023/03/04 05:26:03;;;;;;;1.70;0.60;;;19.70;51.10;;;;;;5032610;28;20052;-66
2023/03/04 05:28:29;;;;;;;1.92;0.60;;;19.70;51.20;;;;;;5032168;28;20394;-66
2023/03/04 05:30:54;;;;;;;1.73;0.40;;;19.70;51.20;;;;;;5032908;28;20606;-66
2023/03/04 05:33:20;;;;;;;2.60;0.65;;;19.70;51.10;;;;;;5033448;28;20045;-65
2023/03/04 05:35:47;;;;;;;2.38;0.30;;;19.70;51.50;;;;;;5033483;28;20080;-66
2023/03/04 05:38:13;;;;;;;0.93;0.40;;;19.70;51.20;;;;;;5033895;28;20040;-66
2023/03/04 05:40:39;;;;;;;1.40;0.35;;;19.70;51.10;;;;;;5041541;28;20048;-66
2023/03/04 05:43:05;;;;;;;2.15;0.50;;;19.70;51.10;;;;;;5045178;28;20124;-65
2023/03/04 05:45:31;;;;;;;1.48;0.75;;;19.70;51.10;;;;;;5031962;28;20045;-65
2023/03/04 05:47:56;;;;;;;2.22;0.50;;;19.70;51.10;;;;;;5031372;28;20095;-66
2023/03/04 05:50:22;;;;;;;1.80;0.52;;;19.70;51.20;;;;;;5033724;28;20535;-66
2023/03/04 05:52:48;;;;;;;1.13;0.40;;;19.70;51.20;;;;;;5032549;28;20107;-65
2023/03/04 05:55:13;;;;;;;2.63;0.45;;;19.70;51.10;;;;;;5031181;28;20115;-65
2023/03/04 05:57:39;;;;;;;2.20;0.45;;;19.70;51.10;;;;;;5032910;28;20508;-65
2023/03/04 06:00:08;;;;;;;1.35;0.43;;;19.70;51.10;;;;;;5032043;28;20053;-66
2023/03/04 06:02:34;;;;;;;1.08;0.40;;;19.70;51.10;;;;;;5032467;28;20103;-65
2023/03/04 06:04:59;;;;;;;2.15;0.50;;;19.70;51.10;;;;;;5033609;28;20041;-65
2023/03/04 06:07:25;;;;;;;2.63;0.47;;;19.70;51.10;;;;;;5031492;28;20045;-66
2023/03/04 06:09:51;;;;;;;1.65;0.40;;;19.80;51.20;;;;;;5052817;28;20045;-66
2023/03/04 06:12:16;;;;;;;2.30;0.63;;;19.80;51.20;;;;;;5052953;28;20037;-66
2023/03/04 06:14:42;;;;;;;2.65;1.00;;;19.70;51.10;;;;;;5051811;28;20714;-65
2023/03/04 06:17:07;;;;;;;2.03;0.63;;;19.80;51.20;;;;;;5053194;28;20045;-65
2023/03/04 06:19:33;;;;;;;1.58;0.40;;;19.80;51.20;;;;;;5051233;28;20041;-65
2023/03/04 06:21:58;;;;;;;2.30;0.35;;;19.80;51.20;;;;;;5050432;28;20081;-65
2023/03/04 06:24:24;;;;;;;2.85;0.40;;;19.80;51.10;;;;;;5052418;28;20384;-66
2023/03/04 06:26:49;;;;;;;2.63;0.45;;;19.80;51.20;;;;;;5052687;28;20086;-65
2023/03/04 06:29:15;;;;;;;1.13;0.30;;;19.80;51.10;;;;;;5051832;28;20051;-65
2023/03/04 06:31:41;;;;;;;1.48;0.30;;;19.90;51.20;;;;;;5052727;28;20095;-65
2023/03/04 06:34:07;;;;;;;1.98;0.43;;;19.90;51.20;;;;;;5052586;28;20040;-65
2023/03/04 06:36:33;;;;;;;2.25;0.45;;;19.80;51.10;;;;;;5051213;28;20067;-65
2023/03/04 06:39:00;;;;;;;2.70;0.60;;;19.80;51.10;;;;;;5033165;28;20452;-65
2023/03/04 06:41:26;;;;;;;1.45;0.47;;;19.80;51.20;;;;;;5031325;28;20164;-66
2023/03/04 06:43:53;;;;;;;2.83;0.40;;;19.80;51.20;;;;;;5032308;28;20171;-66
2023/03/04 06:46:19;;;;;;;1.08;0.30;;;19.80;51.20;;;;;;5032389;28;20122;-66
2023/03/04 06:48:44;;;;;;;1.75;0.50;;;19.80;51.10;;;;;;5032329;28;20137;-65
2023/03/04 06:51:10;;;;;;;2.60;0.70;;;19.80;51.10;;;;;;5031695;28;20083;-66
2023/03/04 06:53:36;;;;;;;1.23;0.40;;;19.80;51.10;;;;;;5032390;28;20072;-66
2023/03/04 06:56:02;;;;;;;2.10;0.50;;;19.80;51.10;;;;;;5032559;28;20037;-67
2023/03/04 06:58:27;;;;;;;2.10;0.40;;;19.80;51.10;;;;;;5031355;28;20487;-66
2023/03/04 07:00:53;;;;;;;0.98;0.32;;;19.80;51.90;;;;;;5031499;28;20053;-66
2023/03/04 07:03:18;;;;;;;1.55;0.47;;;19.90;51.20;;;;;;5032676;28;20029;-65
2023/03/04 07:05:44;;;;;;;2.20;0.40;;;19.80;51.10;;;;;;5031540;28;20389;-66
2023/03/04 07:08:10;;;;;;;1.58;0.40;;;19.90;51.20;;;;;;5031966;28;20049;-65
2023/03/04 07:10:35;;;;;;;1.30;0.30;;;19.90;51.20;;;;;;5031459;28;20034;-66
2023/03/04 07:13:01;;;;;;;1.15;0.20;;;19.80;51.20;;;;;;5032288;28;20179;-66
2023/03/04 07:15:27;;;;;;;2.05;0.30;;;19.90;51.20;;;;;;5031393;28;20041;-66
2023/03/04 07:17:52;;;;;;;1.05;0.30;;;19.90;51.20;;;;;;5030787;28;20075;-66
2023/03/04 07:20:18;;;;;;;1.67;0.40;;;19.90;51.20;;;;;;5032737;28;20540;-71
2023/03/04 07:22:43;;;;;;;2.95;0.70;;;19.90;51.20;;;;;;5031741;28;20041;-69
2023/03/04 07:25:09;;;;;;;3.60;0.50;;;19.90;51.20;;;;;;5031547;28;20547;-68
2023/03/04 07:27:37;;;;;;;3.42;0.50;;;19.90;51.20;;;;;;5032246;28;20038;-68
2023/03/04 07:30:06;;;;;;;2.58;0.32;;;19.90;52.00;;;;;;5031902;28;20048;-70
2023/03/04 07:32:33;;;;;;;3.75;0.30;;;19.90;51.30;;;;;;5031039;28;20571;-69
2023/03/04 07:34:58;;;;;;;4.78;0.50;;;19.90;51.30;;;;;;5033216;28;20451;-68
2023/03/04 07:37:24;;;;;;;2.10;0.45;;;20.00;51.40;;;;;;5035614;28;20041;-69
2023/03/04 07:39:50;;;;;;;0.93;0.30;;;20.00;51.50;;;;;;5035524;28;20092;-69
2023/03/04 07:42:15;;;;;;;2.55;0.40;;;20.00;51.50;;;;;;5035887;28;20057;-69
2023/03/04 07:44:41;;;;;;;3.38;0.90;;;20.00;51.60;;;;;;5035661;28;20388;-69
2023/03/04 07:47:06;;;;;;;2.25;0.40;;;20.00;51.60;;;;;;5034254;28;20493;-68
2023/03/04 07:49:32;;;;;;;3.75;0.40;;;20.00;51.60;;;;;;5035719;28;20049;-70
2023/03/04 07:52:01;;;;;;;2.85;0.30;;;20.00;51.60;;;;;;5035974;28;20045;-68
2023/03/04 07:54:26;;;;;;;3.05;0.30;;;20.00;51.70;;;;;;5016536;28;20060;-67
2023/03/04 07:56:52;;;;;;;4.32;0.40;;;20.00;51.80;;;;;;5035857;28;20049;-69
2023/03/04 07:59:18;;;;;;;3.15;0.43;;;20.00;51.90;;;;;;5044059;28;20033;-70
2023/03/04 08:01:43;;;;;;;2.78;0.50;;;20.00;51.90;;;;;;5038234;28;20133;-70
2023/03/04 08:04:09;;;;;;;3.22;0.30;;;20.10;52.10;;;;;;5035734;28;20029;-70
2023/03/04 08:06:34;;;;;;;4.47;0.40;;;20.10;52.20;;;;;;5034917;28;20497;-69
2023/03/04 08:09:05;;;;;;;1.88;0.30;;;20.10;52.40;;;;;;5034259;28;20099;-72
2023/03/04 08:11:31;;;;;;;1.58;0.40;;;20.10;52.50;;;;;;5034881;28;20033;-70
2023/03/04 08:13:57;;;;;;;1.75;0.30;;;20.10;52.50;;;;;;5034423;28;20052;-67
2023/03/04 08:16:22;;;;;;;2.85;0.30;;;20.10;52.60;;;;;;5034590;28;20050;-66
2023/03/04 08:18:50;;;;;;;2.08;0.30;;;20.10;52.60;;;;;;5035543;28;20112;-66
2023/03/04 08:21:20;;;;;;;1.48;0.20;;;20.10;52.60;;;;;;5034150;28;20050;-68
2023/03/04 08:23:45;;;;;;;3.00;0.60;;;20.10;52.70;;;;;;5033740;28;20118;-62
2023/03/04 08:26:23;;;;;;;1.88;0.32;;;20.20;52.80;;;;;;5034394;28;20092;-65
2023/03/04 08:28:49;;;;;;;2.03;0.40;;;20.20;52.90;;;;;;5034583;28;20034;-67
2023/03/04 08:31:15;;;;;;;5.05;0.40;;;20.20;52.80;;;;;;5035175;28;20049;-66
2023/03/04 08:33:40;;;;;;;2.70;0.40;;;20.20;52.90;;;;;;5034396;28;20038;-66
2023/03/04 08:36:07;;;;;;;4.75;0.50;;;20.20;53.00;;;;;;5035556;28;20060;-66
2023/03/04 08:38:32;;;;;;;3.08;0.40;;;20.20;53.10;;;;;;5031551;28;20056;-66
2023/03/04 08:40:58;;;;;;;4.53;0.40;;;20.20;53.20;;;;;;5035348;28;20037;-65
2023/03/04 08:43:24;;;;;;;3.00;0.30;;;20.20;53.30;;;;;;5031614;28;20100;-68
2023/03/04 08:45:49;;;;;;;1.02;0.30;;;20.20;53.30;;;;;;5030571;28;20424;-64
2023/03/04 08:48:16;;;;;;;3.35;0.47;;;20.20;53.30;;;;;;5033382;28;20041;-65
2023/03/04 08:50:43;;;;;;;3.13;0.50;;;20.20;53.40;;;;;;5032182;28;20052;-64
2023/03/04 08:53:08;;;;;;;1.35;0.32;;;20.20;53.40;;;;;;5032655;28;20049;-65
2023/03/04 08:55:34;;;;;;;2.45;0.30;;;20.20;54.10;;;;;;5031970;28;20049;-65
2023/03/04 08:58:00;;;;;;;2.70;0.32;;;20.20;53.50;;;;;;5034436;28;20183;-66
2023/03/04 09:00:25;;;;;;;3.53;0.73;;;20.20;53.50;;;;;;5031810;28;20645;-65
2023/03/04 09:02:51;;;;;;;1.70;0.35;;;20.20;53.60;;;;;;5033235;28;20041;-65
2023/03/04 09:05:16;;;;;;;4.50;0.40;;;20.20;53.60;;;;;;5031250;28;20071;-68
2023/03/04 09:07:42;;;;;;;1.95;0.30;;;20.20;53.60;;;;;;5032317;28;20037;-68
2023/03/04 09:10:08;;;;;;;2.20;0.40;;;20.20;53.50;;;;;;5026850;28;20108;-67
2023/03/04 09:12:34;;;;;;;2.58;0.30;;;20.20;53.40;;;;;;5013052;28;20050;-68
2023/03/04 09:14:59;;;;;;;2.33;0.30;;;20.20;53.20;;;;;;5019319;28;20053;-62
2023/03/04 09:17:25;;;;;;;2.65;0.35;;;20.20;53.10;;;;;;5022024;28;20056;-65
2023/03/04 09:19:51;;;;;;;9.10;1.30;;;20.20;53.10;;;;;;5028309;28;20044;-67
2023/03/04 09:22:16;;;;;;;2.75;0.30;;;20.20;53.20;;;;;;5012943;28;20117;-68
2023/03/04 09:24:42;;;;;;;2.72;0.47;;;20.20;53.30;;;;;;5015659;28;20659;-66
2023/03/04 09:27:07;;;;;;;2.63;0.43;;;20.20;53.40;;;;;;5011576;28;20046;-65
2023/03/04 09:29:33;;;;;;;1.95;0.30;;;20.30;53.40;;;;;;5022192;28;20037;-66
2023/03/04 09:31:59;;;;;;;3.17;0.40;;;20.20;53.30;;;;;;5014632;28;20046;-69
2023/03/04 09:34:24;;;;;;;3.45;0.50;;;20.20;53.40;;;;;;5019728;28;20045;-66
2023/03/04 09:36:50;;;;;;;3.88;0.73;;;20.30;53.40;;;;;;5028337;28;20056;-74
2023/03/04 09:39:15;;;;;;;1.85;0.50;;;20.30;53.40;;;;;;5039818;28;20037;-69
2023/03/04 09:41:46;;;;;;;4.53;0.50;;;20.30;53.40;;;;;;5013004;28;1054254;-69
2023/03/04 09:44:27;;;;;;;2.35;0.60;;;20.30;53.40;;;;;;5039502;28;20041;-75
2023/03/04 09:46:53;;;;;;;2.47;0.40;;;20.30;53.30;;;;;;5030348;28;20436;-69
2023/03/04 09:49:19;;;;;;;2.75;0.52;;;20.30;53.20;;;;;;5016268;28;20044;-69
2023/03/04 09:52:03;;;;;;;2.25;0.50;;;20.30;53.20;;;;;;5017231;28;20049;-69
2023/03/04 09:54:41;;;;;;;2.80;0.30;;;20.30;53.10;;;;;;5012500;28;20120;-67
2023/03/04 09:57:33;;;;;;;4.85;0.40;;;20.30;53.20;;;;;;5011499;28;20050;-68
2023/03/04 10:00:03;;;;;;;3.55;0.50;;;20.30;53.30;;;;;;5014406;28;20115;-65
2023/03/04 10:02:37;;;;;;;4.20;0.45;;;20.30;53.30;;;;;;5012985;28;20477;-66
2023/03/04 10:05:03;;;;;;;2.35;0.60;;;20.30;53.40;;;;;;5012019;28;20053;-66
2023/03/04 10:07:35;;;;;;;6.05;0.85;;;20.30;53.40;;;;;;5009450;28;20042;-66
2023/03/04 10:10:12;;;;;;;3.72;0.50;;;20.30;53.50;;;;;;5012882;28;20108;-66
2023/03/04 10:12:39;;;;;;;3.57;0.67;;;20.30;53.60;;;;;;5011407;28;20092;-66
2023/03/04 10:15:35;;;;;;;2.88;0.60;;;20.30;53.60;;;;;;5019512;28;20314;-67
2023/03/04 10:18:22;;;;;;;2.13;0.50;;;20.30;53.60;;;;;;5014629;28;20054;-66
2023/03/04 10:20:57;;;;;;;4.70;0.60;;;20.30;53.70;;;;;;5019291;28;20069;-60
2023/03/04 10:23:24;;;;;;;6.07;0.60;;;20.30;53.70;;;;;;5020176;28;20111;-68
2023/03/04 10:25:53;;;;;;;3.65;0.50;;;20.30;53.60;;;;;;5027274;28;20042;-67
2023/03/04 10:28:28;;;;;;;5.45;0.70;;;20.30;53.50;;;;;;5022827;28;20100;-68
2023/03/04 10:31:16;;;;;;;2.78;0.50;;;20.30;53.60;;;;;;5020615;28;20041;-68
2023/03/04 10:33:41;;;;;;;2.30;0.60;;;20.30;53.70;;;;;;5014979;28;20046;-67
2023/03/04 10:36:21;;;;;;;4.70;0.88;;;20.20;53.60;;;;;;5030636;28;20327;-67
2023/03/04 10:38:46;;;;;;;4.50;0.60;;;20.30;53.70;;;;;;5010264;28;20046;-68
2023/03/04 10:41:23;;;;;;;2.58;0.47;;;20.20;53.70;;;;;;5002151;28;20052;-66
2023/03/04 10:43:59;;;;;;;5.07;0.60;;;20.20;53.60;;;;;;5011862;28;20041;-67
2023/03/04 10:46:25;;;;;;;4.25;0.70;;;20.20;53.60;;;;;;5028032;28;20044;-67
2023/03/04 10:48:51;;;;;;;2.28;0.43;;;20.20;53.60;;;;;;5010458;28;20038;-66
2023/03/04 10:51:25;;;;;;;7.15;0.57;;;20.20;53.60;;;;;;5020669;28;20042;-67
2023/03/04 10:54:04;;;;;;;20.27;1.30;;;20.20;53.60;;;;;;5012631;28;20041;-66
2023/03/04 10:56:31;;;;;;;2.28;0.40;;;20.20;53.60;;;;;;5025707;28;20049;-67
2023/03/04 10:59:27;;;;;;;3.63;0.60;;;20.20;53.60;;;;;;5012645;28;20107;-68
2023/03/04 11:01:53;;;;;;;2.53;0.60;;;20.20;53.60;;;;;;5017959;28;20046;-66
2023/03/04 11:04:19;;;;;;;4.43;0.70;;;20.20;53.60;;;;;;5017863;28;20045;-66
2023/03/04 11:06:45;;;;;;;5.40;0.70;;;20.20;53.60;;;;;;5009401;28;20052;-68
2023/03/04 11:09:27;;;;;;;4.70;0.68;;;20.20;53.60;;;;;;5012540;28;20045;-67
2023/03/04 11:11:59;;;;;;;3.33;0.52;;;20.20;54.30;;;;;;5028855;28;20052;-68
2023/03/04 11:14:54;;;;;;;6.45;0.90;;;20.20;53.60;;;;;;5028582;28;20113;-69
2023/03/04 11:17:27;;;;;;;4.80;0.50;;;20.20;53.60;;;;;;5032937;28;20045;-66
2023/03/04 11:20:10;;;;;;;3.83;1.00;;;20.20;53.60;;;;;;5026250;28;20146;-73
2023/03/04 11:22:36;;;;;;;3.58;0.52;;;20.20;53.60;;;;;;5017148;28;20046;-73
2023/03/04 11:25:04;;;;;;;4.10;0.70;;;20.10;53.50;;;;;;5006497;28;20102;-68
2023/03/04 11:27:43;;;;;;;3.22;0.70;;;20.10;53.50;;;;;;5030333;28;20045;-72
2023/03/04 11:30:18;;;;;;;5.10;0.70;;;20.10;53.50;;;;;;5030453;28;20049;-77
2023/03/04 11:32:45;;;;;;;3.35;0.60;;;20.10;53.60;;;;;;5011134;28;20053;-73
2023/03/04 11:35:17;;;;;;;5.10;0.77;;;20.10;53.50;;;;;;5032337;28;20049;-73
2023/03/04 11:38:06;;;;;;;5.13;0.65;;;20.10;53.50;;;;;;5025222;28;20060;-69
2023/03/04 11:40:39;;;;;;;4.60;0.80;;;20.10;53.70;;;;;;5033181;28;20098;-71
2023/03/04 11:43:10;;;;;;;4.28;0.70;;;20.10;53.80;;;;;;5014563;28;20077;-77
2023/03/04 11:45:47;;;;;;;2.70;0.40;;;20.10;53.80;;;;;;5021524;28;20045;-68
2023/03/04 11:48:31;;;;;;;5.90;1.02;;;20.10;53.80;;;;;;5022122;28;20050;-68
2023/03/04 11:51:12;;;;;;;3.83;0.60;;;20.10;53.90;;;;;;5023210;28;20042;-68
2023/03/04 11:53:56;;;;;;;4.15;0.65;;;20.10;53.90;;;;;;5024432;28;20460;-71
2023/03/04 11:56:56;;;;;;;2.15;0.50;;;20.10;53.90;;;;;;5027434;28;20053;-71
2023/03/04 11:59:27;;;;;;;3.38;0.52;;;20.10;53.90;;;;;;5013366;28;20408;-71
2023/03/04 12:01:58;;;;;;;4.05;0.75;;;20.10;53.90;;;;;;5022923;28;20053;-71
2023/03/04 12:05:01;;;;;;;1.58;0.43;;;20.10;53.90;;;;;;5038712;28;20053;-71
2023/03/04 12:07:40;;;;;;;3.38;0.52;;;20.10;53.90;;;;;;5014284;28;20038;-70
2023/03/04 12:10:43;;;;;;;4.28;0.70;;;20.10;53.90;;;;;;5017708;28;20045;-70
2023/03/04 12:13:43;;;;;;;4.38;0.70;;;20.10;53.90;;;;;;5013748;28;20552;-71
2023/03/04 12:16:20;;;;;;;4.88;0.93;;;20.10;54.30;;;;;;5025967;28;20046;-71
2023/03/04 12:19:21;;;;;;;3.58;0.88;;;20.10;53.90;;;;;;5017973;28;20069;-70
2023/03/04 12:21:56;;;;;;;3.95;0.60;;;20.10;53.80;;;;;;4982960;28;20046;-67
2023/03/04 12:24:40;;;;;;;4.40;0.73;;;20.10;53.90;;;;;;4992148;28;20092;-65
2023/03/04 12:27:21;;;;;;;3.53;0.68;;;20.10;54.00;;;;;;5025788;28;20050;-63
2023/03/04 12:30:06;;;;;;;3.83;0.88;;;20.10;53.90;;;;;;5018561;28;20580;-68
2023/03/04 12:33:17;;;;;;;5.28;0.98;;;20.10;54.00;;;;;;5013573;28;20133;-68
2023/03/04 12:35:55;;;;;;;3.17;0.70;;;20.10;54.00;;;;;;5017332;28;20072;-67
2023/03/04 12:38:41;;;;;;;3.28;0.60;;;20.10;53.90;;;;;;5032215;28;20050;-68
2023/03/04 12:41:40;;;;;;;3.33;0.70;;;20.10;54.00;;;;;;5004253;28;20500;-67
2023/03/04 12:44:16;;;;;;;5.93;0.88;;;20.10;54.00;;;;;;5013236;28;20081;-68
2023/03/04 12:47:13;;;;;;;2.88;0.70;;;20.10;53.90;;;;;;5031246;28;20046;-68
2023/03/04 12:49:46;;;;;;;3.38;0.52;;;20.10;53.90;;;;;;5013588;28;20033;-68
2023/03/04 12:52:37;;;;;;;5.22;0.70;;;20.10;54.00;;;;;;5021809;28;20132;-68
2023/03/04 12:55:14;;;;;;;3.60;0.98;;;20.10;53.90;;;;;;5013516;28;20050;-68
2023/03/04 12:57:40;;;;;;;4.20;0.80;;;20.20;54.00;;;;;;5019938;28;20060;-68